Time;durP1;ratioP1;P1;durP2;ratioP2;P2;SDS_P1;SDS_P2;PMS_P1;PMS_P2;Temp;Humidity;BMP_temperature;BMP_pressure;BME280_temperature;BME280_humidity;BME280_pressure;Samples;Min_cycle;Max_cycle;Signal;HPM_P1;HPM_P2
2022/12/03 00:00:43;;;;;;;33.03;16.30;;;;;;;;;;5018269;28;20209;-43
2022/12/03 00:03:20;;;;;;;32.00;15.30;;;;;;;;;;5018508;28;20216;-42
2022/12/03 00:05:47;;;;;;;38.10;17.63;;;;;;;;;;5018055;28;20304;-43
2022/12/03 00:08:15;;;;;;;37.00;17.07;;;;;;;;;;5017993;28;20201;-43
2022/12/03 00:10:42;;;;;;;34.10;16.93;;;;;;;;;;5018039;28;20229;-43
2022/12/03 00:13:09;;;;;;;34.63;16.60;;;;;;;;;;5018077;28;20209;-42
2022/12/03 00:15:36;;;;;;;35.20;15.40;;;;;;;;;;5017801;28;20205;-42
2022/12/03 00:18:03;;;;;;;31.23;15.30;;;;;;;;;;5018283;28;20205;-42
2022/12/03 00:20:30;;;;;;;32.50;15.77;;;;;;;;;;5017828;28;20217;-43
2022/12/03 00:22:57;;;;;;;33.83;16.37;;;;;;;;;;5017609;28;20682;-43
2022/12/03 00:25:24;;;;;;;30.20;15.27;;;;;;;;;;5018079;28;20193;-45
2022/12/03 00:27:51;;;;;;;33.93;15.60;;;;;;;;;;5017895;28;20201;-44
2022/12/03 00:30:18;;;;;;;36.23;16.70;;;;;;;;;;5017388;28;20240;-42
2022/12/03 00:32:45;;;;;;;32.57;15.27;;;;;;;;;;5017698;28;20205;-43
2022/12/03 00:35:12;;;;;;;33.53;14.97;;;;;;;;;;5017583;28;20209;-43
2022/12/03 00:37:38;;;;;;;32.17;16.20;;;;;;;;;;5018058;28;20217;-42
2022/12/03 00:40:06;;;;;;;31.23;16.20;;;;;;;;;;5017322;28;20551;-42
2022/12/03 00:42:33;;;;;;;27.17;14.97;;;;;;;;;;5017474;28;20236;-42
2022/12/03 00:45:00;;;;;;;31.90;15.97;;;;;;;;;;5017462;28;20260;-42
2022/12/03 00:47:27;;;;;;;33.37;16.30;;;;;;;;;;5016021;28;20292;-42
2022/12/03 00:49:54;;;;;;;32.47;15.90;;;;;;;;;;5017093;28;20229;-43
2022/12/03 00:52:21;;;;;;;32.70;15.63;;;;;;;;;;5017960;28;20227;-42
2022/12/03 00:54:48;;;;;;;25.70;14.13;;;;;;;;;;5016995;28;20603;-42
2022/12/03 00:57:15;;;;;;;35.33;15.90;;;;;;;;;;5017212;28;20662;-43
2022/12/03 00:59:42;;;;;;;30.60;14.77;;;;;;;;;;5017011;28;20213;-42
2022/12/03 01:02:09;;;;;;;26.83;14.60;;;;;;;;;;5017098;28;20221;-42
2022/12/03 01:04:36;;;;;;;31.50;15.80;;;;;;;;;;5017271;28;20210;-43
2022/12/03 01:07:03;;;;;;;29.70;15.13;;;;;;;;;;5017063;28;20292;-42
2022/12/03 01:09:30;;;;;;;28.00;14.33;;;;;;;;;;5016924;28;20202;-42
2022/12/03 01:11:57;;;;;;;29.77;15.53;;;;;;;;;;5016969;28;20233;-42
2022/12/03 01:14:25;;;;;;;29.33;14.87;;;;;;;;;;5016759;28;20717;-42
2022/12/03 01:16:51;;;;;;;33.00;14.80;;;;;;;;;;5016882;28;20228;-42
2022/12/03 01:19:19;;;;;;;26.87;13.97;;;;;;;;;;5016795;28;20556;-43
2022/12/03 01:21:47;;;;;;;29.43;14.57;;;;;;;;;;5017060;28;20252;-42
2022/12/03 01:24:15;;;;;;;27.60;13.43;;;;;;;;;;5016766;28;20241;-42
2022/12/03 01:26:42;;;;;;;28.03;14.70;;;;;;;;;;5016555;28;20205;-43
2022/12/03 01:29:09;;;;;;;30.60;14.80;;;;;;;;;;5016639;28;20205;-43
2022/12/03 01:34:22;;;;;;;29.43;14.90;;;;;;;;;;5016873;28;20205;-42
2022/12/03 01:36:51;;;;;;;28.77;14.67;;;;;;;;;;5016474;28;20209;-43
2022/12/03 01:39:18;;;;;;;26.63;13.63;;;;;;;;;;5016434;28;20209;-42
2022/12/03 01:41:46;;;;;;;27.70;15.10;;;;;;;;;;5016304;28;20216;-42
2022/12/03 01:44:32;;;;;;;26.00;13.90;;;;;;;;;;5016005;28;20293;-42
2022/12/03 01:47:03;;;;;;;32.77;15.20;;;;;;;;;;5017054;28;20190;-42
2022/12/03 01:49:40;;;;;;;28.93;14.37;;;;;;;;;;5016538;28;20194;-42
2022/12/03 01:52:12;;;;;;;29.53;14.60;;;;;;;;;;5015231;28;20221;-48
2022/12/03 01:54:49;;;;;;;30.03;14.63;;;;;;;;;;5015937;28;20193;-43
2022/12/03 01:57:34;;;;;;;27.90;14.37;;;;;;;;;;5015163;28;20216;-42
2022/12/03 02:00:02;;;;;;;25.40;14.27;;;;;;;;;;5015408;28;20213;-43
2022/12/03 02:02:31;;;;;;;28.43;14.83;;;;;;;;;;5016061;28;20216;-42
2022/12/03 02:04:59;;;;;;;29.73;15.20;;;;;;;;;;5015001;28;20591;-42
2022/12/03 02:07:29;;;;;;;29.33;15.13;;;;;;;;;;5016000;28;20698;-42
2022/12/03 02:09:59;;;;;;;27.13;14.27;;;;;;;;;;5016026;28;20200;-41
2022/12/03 02:12:46;;;;;;;28.77;14.60;;;;;;;;;;5016024;28;20209;-43
2022/12/03 02:15:13;;;;;;;29.50;13.60;;;;;;;;;;5015974;28;20190;-42
2022/12/03 02:17:41;;;;;;;27.13;14.13;;;;;;;;;;5015076;28;20205;-43
2022/12/03 02:20:09;;;;;;;25.90;14.07;;;;;;;;;;5015744;28;20692;-43
2022/12/03 02:23:02;;;;;;;24.70;13.33;;;;;;;;;;5015906;28;20244;-43
2022/12/03 02:25:31;;;;;;;30.30;13.90;;;;;;;;;;5015791;28;20630;-42
2022/12/03 02:27:58;;;;;;;26.20;13.33;;;;;;;;;;5015633;28;20283;-43
2022/12/03 02:30:27;;;;;;;26.13;14.57;;;;;;;;;;5014644;28;20654;-43
2022/12/03 02:32:55;;;;;;;29.03;13.63;;;;;;;;;;5015586;28;20205;-42
2022/12/03 02:35:28;;;;;;;24.77;13.17;;;;;;;;;;5015534;28;20704;-42
2022/12/03 02:38:13;;;;;;;24.57;13.23;;;;;;;;;;5015671;28;20271;-42
2022/12/03 02:40:40;;;;;;;22.07;13.00;;;;;;;;;;5015496;28;20615;-42
2022/12/03 02:43:08;;;;;;;23.97;13.37;;;;;;;;;;5014555;28;20231;-43
2022/12/03 02:45:38;;;;;;;29.30;13.40;;;;;;;;;;5014747;28;20205;-43
2022/12/03 02:48:07;;;;;;;25.40;13.47;;;;;;;;;;5015339;28;20206;-42
2022/12/03 02:50:40;;;;;;;25.27;13.37;;;;;;;;;;5015110;28;20229;-43
2022/12/03 02:53:17;;;;;;;22.90;13.20;;;;;;;;;;5014683;28;20213;-42
2022/12/03 02:55:44;;;;;;;26.00;13.90;;;;;;;;;;5014698;28;20201;-43
2022/12/03 02:58:11;;;;;;;26.37;12.73;;;;;;;;;;5015275;28;20201;-42
2022/12/03 03:00:39;;;;;;;26.87;13.43;;;;;;;;;;5014969;28;20197;-42
2022/12/03 03:03:07;;;;;;;35.73;20.53;;;;;;;;;;5015148;28;20209;-43
2022/12/03 03:05:36;;;;;;;22.97;13.00;;;;;;;;;;5014009;28;20592;-43
2022/12/03 03:08:03;;;;;;;25.53;12.97;;;;;;;;;;5014495;28;20213;-42
2022/12/03 03:10:32;;;;;;;22.33;13.50;;;;;;;;;;5016796;28;20209;-42
2022/12/03 03:13:01;;;;;;;27.70;13.30;;;;;;;;;;5018271;28;20205;-43
2022/12/03 03:15:28;;;;;;;22.17;12.10;;;;;;;;;;5018165;28;20209;-42
2022/12/03 03:17:55;;;;;;;24.70;12.23;;;;;;;;;;5018993;28;20602;-42
2022/12/03 03:20:22;;;;;;;23.53;12.17;;;;;;;;;;5019304;28;20209;-42
2022/12/03 03:22:48;;;;;;;28.50;12.63;;;;;;;;;;5019130;28;20241;-43
2022/12/03 03:25:19;;;;;;;23.00;13.13;;;;;;;;;;5019094;28;20533;-42
2022/12/03 03:27:46;;;;;;;31.03;14.10;;;;;;;;;;5018145;28;20208;-43
2022/12/03 03:30:15;;;;;;;22.23;11.87;;;;;;;;;;5019122;28;20216;-42
2022/12/03 03:32:42;;;;;;;26.40;13.57;;;;;;;;;;5019034;28;20241;-42
2022/12/03 03:35:10;;;;;;;28.23;13.93;;;;;;;;;;5018801;28;20205;-42
2022/12/03 03:37:37;;;;;;;35.57;15.43;;;;;;;;;;5018550;28;20214;-42
2022/12/03 03:40:05;;;;;;;24.80;13.43;;;;;;;;;;5017782;28;20220;-42
2022/12/03 03:42:32;;;;;;;27.17;13.63;;;;;;;;;;5017728;28;20512;-43
2022/12/03 03:45:00;;;;;;;33.47;15.03;;;;;;;;;;5018385;28;20204;-42
2022/12/03 03:47:26;;;;;;;27.97;13.90;;;;;;;;;;5018691;28;20626;-42
2022/12/03 03:49:53;;;;;;;26.37;13.73;;;;;;;;;;5019072;28;20212;-43
2022/12/03 03:52:21;;;;;;;27.07;14.00;;;;;;;;;;5017590;28;20224;-42
2022/12/03 03:54:48;;;;;;;26.83;13.17;;;;;;;;;;5017594;28;20201;-42
2022/12/03 03:57:15;;;;;;;21.80;12.17;;;;;;;;;;5018085;28;20209;-43
2022/12/03 03:59:42;;;;;;;26.50;12.80;;;;;;;;;;5018298;28;20213;-42
2022/12/03 04:02:19;;;;;;;23.80;13.13;;;;;;;;;;5018491;28;20220;-44
2022/12/03 04:04:47;;;;;;;21.17;11.80;;;;;;;;;;5018665;28;20213;-42
2022/12/03 04:07:15;;;;;;;19.70;11.90;;;;;;;;;;5018332;28;20202;-42
2022/12/03 04:09:42;;;;;;;27.27;13.00;;;;;;;;;;5017818;28;20201;-43
2022/12/03 04:14:56;;;;;;;25.53;12.50;;;;;;;;;;5018227;28;20190;-44
2022/12/03 04:17:23;;;;;;;25.33;11.87;;;;;;;;;;5018134;28;20267;-43
2022/12/03 04:19:50;;;;;;;28.13;13.50;;;;;;;;;;5018018;28;20263;-43
2022/12/03 04:30:37;;;;;;;25.23;11.77;;;;;;;;;;5017678;28;20540;-42
2022/12/03 04:35:51;;;;;;;27.63;12.77;;;;;;;;;;5017752;28;20212;-42
2022/12/03 04:38:18;;;;;;;31.40;12.77;;;;;;;;;;5017497;28;20205;-42
2022/12/03 04:41:00;;;;;;;22.63;12.50;;;;;;;;;;5016213;28;20201;-42
2022/12/03 04:43:27;;;;;;;21.90;11.23;;;;;;;;;;5017890;28;20209;-42
2022/12/03 04:45:54;;;;;;;22.93;11.00;;;;;;;;;;5017695;28;20216;-43
2022/12/03 04:48:21;;;;;;;24.57;11.87;;;;;;;;;;5017859;28;20228;-43
2022/12/03 04:50:48;;;;;;;26.27;13.40;;;;;;;;;;5016970;28;20708;-42
2022/12/03 04:53:15;;;;;;;26.77;12.63;;;;;;;;;;5017587;28;20292;-42
2022/12/03 04:55:42;;;;;;;34.17;15.23;;;;;;;;;;5017199;28;20255;-42
2022/12/03 04:58:09;;;;;;;26.10;14.93;;;;;;;;;;5017250;28;20220;-42
2022/12/03 05:00:36;;;;;;;27.97;13.10;;;;;;;;;;5017510;28;20213;-42
2022/12/03 05:03:03;;;;;;;25.70;14.40;;;;;;;;;;5017217;28;20284;-43
2022/12/03 05:05:30;;;;;;;27.97;13.13;;;;;;;;;;5017165;28;20193;-42
2022/12/03 05:07:57;;;;;;;30.57;12.83;;;;;;;;;;5017043;28;20216;-42
2022/12/03 05:10:24;;;;;;;25.37;12.23;;;;;;;;;;5016989;28;20279;-42
2022/12/03 05:12:51;;;;;;;31.27;13.37;;;;;;;;;;5016869;28;20229;-42
2022/12/03 05:15:18;;;;;;;20.47;12.57;;;;;;;;;;5016814;28;20212;-42
2022/12/03 05:17:45;;;;;;;27.73;13.33;;;;;;;;;;5016870;28;20209;-42
2022/12/03 05:22:58;;;;;;;30.50;14.13;;;;;;;;;;5016812;28;20662;-42
2022/12/03 05:25:25;;;;;;;33.80;17.53;;;;;;;;;;5016681;28;20283;-42
2022/12/03 05:27:52;;;;;;;24.70;14.77;;;;;;;;;;5016670;28;20270;-44
2022/12/03 05:30:21;;;;;;;29.87;14.87;;;;;;;;;;5016765;28;20217;-42
2022/12/03 05:32:47;;;;;;;25.70;13.73;;;;;;;;;;5015772;28;20229;-42
2022/12/03 05:35:15;;;;;;;25.17;12.70;;;;;;;;;;5016495;28;20224;-42
2022/12/03 05:37:42;;;;;;;28.97;13.37;;;;;;;;;;5016472;28;20285;-43
2022/12/03 05:40:10;;;;;;;25.00;13.17;;;;;;;;;;5016501;28;20217;-43
2022/12/03 05:45:23;;;;;;;24.93;13.03;;;;;;;;;;5016477;28;20596;-42
2022/12/03 05:47:51;;;;;;;26.00;12.50;;;;;;;;;;5016162;28;20205;-42
2022/12/03 05:50:23;;;;;;;25.33;13.23;;;;;;;;;;5015916;28;20643;-43
2022/12/03 05:52:53;;;;;;;25.87;13.53;;;;;;;;;;5016293;28;20320;-43
2022/12/03 05:55:20;;;;;;;26.33;12.87;;;;;;;;;;5016335;28;20209;-43
2022/12/03 05:57:47;;;;;;;25.73;14.33;;;;;;;;;;5015682;28;20638;-42
2022/12/03 06:00:26;;;;;;;25.17;13.70;;;;;;;;;;5016081;28;20213;-45
2022/12/03 06:02:53;;;;;;;25.40;12.77;;;;;;;;;;5015029;28;20271;-44
2022/12/03 06:05:21;;;;;;;34.00;14.93;;;;;;;;;;5015683;28;20209;-43
2022/12/03 06:07:49;;;;;;;30.10;14.30;;;;;;;;;;5015863;28;20308;-43
2022/12/03 06:10:20;;;;;;;29.80;14.67;;;;;;;;;;5015525;28;20213;-42
2022/12/03 06:12:46;;;;;;;27.27;12.87;;;;;;;;;;5020490;28;20253;-42
2022/12/03 06:15:14;;;;;;;29.77;14.43;;;;;;;;;;5054856;28;20215;-44
2022/12/03 06:17:41;;;;;;;24.87;14.33;;;;;;;;;;5055177;28;20291;-42
2022/12/03 06:20:12;;;;;;;26.60;14.23;;;;;;;;;;5039841;28;20200;-43
2022/12/03 06:22:39;;;;;;;27.37;14.17;;;;;;;;;;5024179;28;20320;-46
2022/12/03 06:25:06;;;;;;;43.10;26.00;;;;;;;;;;5028468;28;20208;-45
2022/12/03 06:27:33;;;;;;;28.80;15.50;;;;;;;;;;5023156;28;20222;-46
2022/12/03 06:30:01;;;;;;;28.13;15.00;;;;;;;;;;5029977;28;20541;-46
2022/12/03 06:32:28;;;;;;;29.73;14.27;;;;;;;;;;5023861;28;20603;-43
2022/12/03 06:34:55;;;;;;;35.10;15.87;;;;;;;;;;5022949;28;20197;-46
2022/12/03 06:37:22;;;;;;;25.80;14.33;;;;;;;;;;5027899;28;20201;-44
2022/12/03 06:39:50;;;;;;;29.37;15.43;;;;;;;;;;5034737;28;20627;-43
2022/12/03 06:42:16;;;;;;;26.83;14.83;;;;;;;;;;5035008;28;20291;-43
2022/12/03 06:44:44;;;;;;;29.63;15.80;;;;;;;;;;5027030;28;20225;-43
2022/12/03 06:47:10;;;;;;;32.30;15.03;;;;;;;;;;5037301;28;20685;-46
2022/12/03 06:49:37;;;;;;;31.47;15.43;;;;;;;;;;5021232;28;20233;-44
2022/12/03 06:52:04;;;;;;;28.77;16.90;;;;;;;;;;5025587;28;20228;-45
2022/12/03 06:54:32;;;;;;;28.67;16.70;;;;;;;;;;5021271;28;20254;-42
2022/12/03 06:56:59;;;;;;;27.13;14.67;;;;;;;;;;5005083;28;20221;-45
2022/12/03 06:59:26;;;;;;;31.53;16.87;;;;;;;;;;5032839;28;20283;-44
2022/12/03 07:01:53;;;;;;;33.67;19.60;;;;;;;;;;5033837;28;20239;-42
2022/12/03 07:04:20;;;;;;;32.50;19.40;;;;;;;;;;5034256;28;20217;-43
2022/12/03 07:06:47;;;;;;;27.93;15.50;;;;;;;;;;5033600;28;20221;-44
2022/12/03 07:09:15;;;;;;;29.23;15.00;;;;;;;;;;5033768;28;20228;-46
2022/12/03 07:11:42;;;;;;;54.90;26.33;;;;;;;;;;5032779;28;20727;-45
2022/12/03 07:14:12;;;;;;;272.83;127.17;;;;;;;;;;5029483;28;20225;-42
2022/12/03 07:16:41;;;;;;;159.77;76.40;;;;;;;;;;5022029;28;20229;-50
2022/12/03 07:19:09;;;;;;;211.67;106.03;;;;;;;;;;5023133;28;20616;-45
2022/12/03 07:21:36;;;;;;;253.70;115.47;;;;;;;;;;5027760;28;20225;-44
2022/12/03 07:24:03;;;;;;;198.03;92.27;;;;;;;;;;5014044;28;20252;-44
2022/12/03 07:26:30;;;;;;;152.50;74.00;;;;;;;;;;5028072;28;20231;-41
2022/12/03 07:28:57;;;;;;;200.83;111.33;;;;;;;;;;5022916;28;20220;-44
2022/12/03 07:31:24;;;;;;;65.03;40.60;;;;;;;;;;5033338;28;20274;-43
2022/12/03 07:33:51;;;;;;;52.43;30.27;;;;;;;;;;5033353;28;20229;-44
2022/12/03 07:36:18;;;;;;;94.80;60.37;;;;;;;;;;5033264;28;20707;-46
2022/12/03 07:38:45;;;;;;;115.83;78.43;;;;;;;;;;5023525;28;20220;-43
2022/12/03 07:41:14;;;;;;;130.00;89.47;;;;;;;;;;5013998;28;20217;-41
2022/12/03 07:43:41;;;;;;;49.27;27.33;;;;;;;;;;5013273;28;20229;-49
2022/12/03 07:46:08;;;;;;;151.90;54.53;;;;;;;;;;5013795;28;20259;-45
2022/12/03 07:48:35;;;;;;;145.17;52.53;;;;;;;;;;5012310;28;20743;-48
2022/12/03 07:51:02;;;;;;;97.37;43.93;;;;;;;;;;5013069;28;20233;-44
2022/12/03 07:53:29;;;;;;;99.47;40.60;;;;;;;;;;5013118;28;20237;-47
2022/12/03 07:55:56;;;;;;;84.00;36.37;;;;;;;;;;5013956;28;20308;-42
2022/12/03 07:58:23;;;;;;;85.00;40.10;;;;;;;;;;5020690;28;20221;-49
2022/12/03 08:00:50;;;;;;;65.27;33.17;;;;;;;;;;5016428;28;20241;-58
2022/12/03 08:03:18;;;;;;;72.37;33.20;;;;;;;;;;5049267;28;20213;-47
2022/12/03 08:05:44;;;;;;;116.57;44.37;;;;;;;;;;5016559;28;20229;-51
2022/12/03 08:08:12;;;;;;;189.23;67.33;;;;;;;;;;5017477;28;20225;-47
2022/12/03 08:10:39;;;;;;;118.70;40.20;;;;;;;;;;5034815;28;20673;-47
2022/12/03 08:13:11;;;;;;;157.33;50.43;;;;;;;;;;5035984;28;20247;-46
2022/12/03 08:15:38;;;;;;;242.00;73.63;;;;;;;;;;5035764;28;20220;-47
2022/12/03 08:18:20;;;;;;;316.47;94.47;;;;;;;;;;5035217;28;20228;-47
2022/12/03 08:20:49;;;;;;;185.07;63.23;;;;;;;;;;5035405;28;20228;-46
2022/12/03 08:23:21;;;;;;;305.60;90.40;;;;;;;;;;5034326;28;20233;-50
2022/12/03 08:25:49;;;;;;;189.17;75.07;;;;;;;;;;5034945;28;20546;-52
2022/12/03 08:28:19;;;;;;;158.60;59.60;;;;;;;;;;5035664;28;20537;-47
2022/12/03 08:30:59;;;;;;;230.10;74.10;;;;;;;;;;5035865;28;20283;-48
2022/12/03 08:33:32;;;;;;;194.20;66.20;;;;;;;;;;5033044;28;20239;-50
2022/12/03 08:36:00;;;;;;;193.10;63.67;;;;;;;;;;5030787;28;20528;-49
2022/12/03 08:38:28;;;;;;;305.90;97.47;;;;;;;;;;5034123;28;20286;-51
2022/12/03 08:40:55;;;;;;;315.67;93.63;;;;;;;;;;5033770;28;20702;-48
2022/12/03 08:43:24;;;;;;;418.17;116.87;;;;;;;;;;5033906;28;20225;-52
2022/12/03 08:45:53;;;;;;;361.30;103.53;;;;;;;;;;5028735;28;20229;-51
2022/12/03 08:48:25;;;;;;;329.50;116.93;;;;;;;;;;5014883;28;20713;-48
2022/12/03 08:50:54;;;;;;;420.03;118.50;;;;;;;;;;5014656;28;20291;-46
2022/12/03 08:53:30;;;;;;;298.53;87.20;;;;;;;;;;5031172;28;20244;-45
2022/12/03 08:55:59;;;;;;;402.47;113.23;;;;;;;;;;5029214;28;20251;-45
2022/12/03 08:58:33;;;;;;;539.57;158.37;;;;;;;;;;5032595;28;20294;-48
2022/12/03 09:01:09;;;;;;;338.47;99.70;;;;;;;;;;5033856;28;20730;-47
2022/12/03 09:03:50;;;;;;;291.70;93.43;;;;;;;;;;5032229;28;20560;-50
2022/12/03 09:06:17;;;;;;;185.80;61.33;;;;;;;;;;5016157;28;20229;-47
2022/12/03 09:08:44;;;;;;;292.37;93.17;;;;;;;;;;5016758;28;20265;-46
2022/12/03 09:11:11;;;;;;;129.70;51.03;;;;;;;;;;5034881;28;20550;-46
2022/12/03 09:13:39;;;;;;;135.37;52.60;;;;;;;;;;5035106;28;20563;-48
2022/12/03 09:16:06;;;;;;;200.70;71.80;;;;;;;;;;5034859;28;20283;-48
2022/12/03 09:18:33;;;;;;;159.37;82.40;;;;;;;;;;5033685;28;20231;-47
2022/12/03 09:21:00;;;;;;;176.47;73.67;;;;;;;;;;5016095;28;20295;-47
2022/12/03 09:23:27;;;;;;;130.67;59.23;;;;;;;;;;5013582;28;20249;-49
2022/12/03 09:25:54;;;;;;;120.83;52.67;;;;;;;;;;5014174;28;20233;-47
2022/12/03 09:28:21;;;;;;;113.23;51.00;;;;;;;;;;5014369;28;20225;-46
2022/12/03 09:30:47;;;;;;;78.17;39.33;;;;;;;;;;5033197;28;20673;-46
2022/12/03 09:33:14;;;;;;;78.97;40.47;;;;;;;;;;5032539;28;20289;-49
2022/12/03 09:35:41;;;;;;;85.03;43.63;;;;;;;;;;5034646;28;20693;-47
2022/12/03 09:38:08;;;;;;;74.57;40.90;;;;;;;;;;5033271;28;20228;-47
2022/12/03 09:40:35;;;;;;;75.30;35.70;;;;;;;;;;5033307;28;20735;-52
2022/12/03 09:43:03;;;;;;;81.17;38.13;;;;;;;;;;5034829;28;20216;-47
2022/12/03 09:45:30;;;;;;;100.20;41.93;;;;;;;;;;5034491;28;20231;-48
2022/12/03 09:47:59;;;;;;;81.33;37.87;;;;;;;;;;5034118;28;20224;-48
2022/12/03 09:50:26;;;;;;;97.87;45.67;;;;;;;;;;5034217;28;20287;-46
2022/12/03 09:52:56;;;;;;;91.53;42.40;;;;;;;;;;5033329;28;20256;-47
2022/12/03 09:55:25;;;;;;;85.90;41.30;;;;;;;;;;5030837;28;20229;-49
2022/12/03 09:57:53;;;;;;;109.53;49.17;;;;;;;;;;5032945;28;20216;-46
2022/12/03 10:00:22;;;;;;;89.37;40.93;;;;;;;;;;5019862;28;20233;-47
2022/12/03 10:02:51;;;;;;;65.10;32.23;;;;;;;;;;5014660;28;20575;-49
2022/12/03 10:05:19;;;;;;;75.20;34.87;;;;;;;;;;5027245;28;20548;-49
2022/12/03 10:07:48;;;;;;;90.57;40.90;;;;;;;;;;5032563;28;20224;-47
2022/12/03 10:10:18;;;;;;;87.77;40.13;;;;;;;;;;5021160;28;20229;-47
2022/12/03 10:12:45;;;;;;;67.53;32.57;;;;;;;;;;5013082;28;20260;-46
2022/12/03 10:15:14;;;;;;;68.77;35.30;;;;;;;;;;5014387;28;20317;-49
2022/12/03 10:17:42;;;;;;;108.90;46.00;;;;;;;;;;5012314;28;20236;-48
2022/12/03 10:20:11;;;;;;;98.50;46.27;;;;;;;;;;5024049;28;20263;-49
2022/12/03 10:22:38;;;;;;;79.60;37.50;;;;;;;;;;5031802;28;20244;-51
2022/12/03 10:25:08;;;;;;;96.97;43.47;;;;;;;;;;5034031;28;20247;-46
2022/12/03 10:27:35;;;;;;;131.67;54.80;;;;;;;;;;5031690;28;20569;-48
2022/12/03 10:30:13;;;;;;;84.80;39.90;;;;;;;;;;5030796;28;20340;-50
2022/12/03 10:32:43;;;;;;;89.77;40.23;;;;;;;;;;5032950;28;20236;-51
2022/12/03 10:35:16;;;;;;;85.90;38.03;;;;;;;;;;5033151;28;20255;-49
2022/12/03 10:38:01;;;;;;;64.87;32.97;;;;;;;;;;5033238;28;20282;-47
2022/12/03 10:40:39;;;;;;;75.23;36.30;;;;;;;;;;5031689;28;20666;-49
2022/12/03 10:43:21;;;;;;;59.70;30.00;;;;;;;;;;5029253;28;20224;-49
2022/12/03 10:45:58;;;;;;;65.60;31.97;;;;;;;;;;5018332;28;20249;-46
2022/12/03 10:48:30;;;;;;;71.87;34.87;;;;;;;;;;5013938;28;20220;-47
2022/12/03 10:51:08;;;;;;;68.97;35.00;;;;;;;;;;5032164;28;20224;-50
2022/12/03 10:53:36;;;;;;;69.90;32.10;;;;;;;;;;5052598;28;20236;-50
2022/12/03 10:56:07;;;;;;;63.53;31.80;;;;;;;;;;5019643;28;20244;-47
2022/12/03 10:58:38;;;;;;;58.33;30.00;;;;;;;;;;5018082;28;20224;-53
2022/12/03 11:01:14;;;;;;;64.47;32.87;;;;;;;;;;5017475;28;20225;-49
2022/12/03 11:03:41;;;;;;;61.10;29.93;;;;;;;;;;5037471;28;20227;-51
2022/12/03 11:06:16;;;;;;;64.57;32.17;;;;;;;;;;5030902;28;20303;-49
2022/12/03 11:08:46;;;;;;;69.77;34.10;;;;;;;;;;5032658;28;20290;-48
2022/12/03 11:11:28;;;;;;;60.37;28.07;;;;;;;;;;5013919;28;20883;-48
2022/12/03 11:14:00;;;;;;;60.93;30.37;;;;;;;;;;5012586;28;20243;-47
2022/12/03 11:16:50;;;;;;;63.17;30.27;;;;;;;;;;5012692;28;20229;-50
2022/12/03 11:19:42;;;;;;;64.47;31.33;;;;;;;;;;5006209;28;20667;-50
2022/12/03 11:22:09;;;;;;;64.57;29.50;;;;;;;;;;5011556;28;20666;-48
2022/12/03 11:24:38;;;;;;;62.30;30.87;;;;;;;;;;5013562;28;20552;-51
2022/12/03 11:27:05;;;;;;;55.10;28.33;;;;;;;;;;5012257;28;20567;-47
2022/12/03 11:29:50;;;;;;;79.40;36.47;;;;;;;;;;5019628;28;20221;-48
2022/12/03 11:32:42;;;;;;;72.77;34.73;;;;;;;;;;5035757;28;20220;-47
2022/12/03 11:35:14;;;;;;;79.53;39.30;;;;;;;;;;5036946;28;20217;-49
2022/12/03 11:37:40;;;;;;;62.70;29.40;;;;;;;;;;5035144;28;20349;-51
2022/12/03 11:40:17;;;;;;;78.13;37.13;;;;;;;;;;5035784;28;20221;-49
2022/12/03 11:42:45;;;;;;;64.90;32.47;;;;;;;;;;5034300;28;20584;-49
2022/12/03 11:45:17;;;;;;;68.47;33.37;;;;;;;;;;5036578;28;20700;-50
2022/12/03 11:47:59;;;;;;;62.43;29.70;;;;;;;;;;5035506;28;20290;-52
2022/12/03 11:50:38;;;;;;;59.03;29.70;;;;;;;;;;5036072;28;20251;-50
2022/12/03 11:53:16;;;;;;;60.87;28.13;;;;;;;;;;5035697;28;20244;-48
2022/12/03 11:55:47;;;;;;;54.13;27.37;;;;;;;;;;5035482;28;20546;-47
2022/12/03 11:58:26;;;;;;;55.53;27.97;;;;;;;;;;5049641;28;20676;-47
2022/12/03 12:00:57;;;;;;;57.17;26.23;;;;;;;;;;5025919;28;20610;-51
2022/12/03 12:03:29;;;;;;;56.07;25.87;;;;;;;;;;5016102;28;20502;-48
2022/12/03 12:06:07;;;;;;;53.60;27.10;;;;;;;;;;5026599;28;20274;-52
2022/12/03 12:08:41;;;;;;;55.47;26.63;;;;;;;;;;5036092;28;20229;-54
2022/12/03 12:11:15;;;;;;;57.20;28.93;;;;;;;;;;5036014;28;20224;-48
2022/12/03 12:13:42;;;;;;;56.13;27.60;;;;;;;;;;5017241;28;20552;-48
2022/12/03 12:16:10;;;;;;;47.27;25.53;;;;;;;;;;5017998;28;20228;-47
2022/12/03 12:18:47;;;;;;;51.73;25.80;;;;;;;;;;5017043;28;20549;-48
2022/12/03 12:21:43;;;;;;;51.90;26.40;;;;;;;;;;5017183;28;20204;-48
2022/12/03 12:24:29;;;;;;;47.47;24.70;;;;;;;;;;5017021;28;20336;-51
2022/12/03 12:26:59;;;;;;;50.57;24.97;;;;;;;;;;5035815;28;20189;-49
2022/12/03 12:29:26;;;;;;;61.23;27.90;;;;;;;;;;5036459;28;20634;-49
2022/12/03 12:31:59;;;;;;;54.60;28.30;;;;;;;;;;5036282;28;20193;-47
2022/12/03 12:34:26;;;;;;;63.23;29.37;;;;;;;;;;5035681;28;20307;-47
2022/12/03 12:36:56;;;;;;;60.03;27.47;;;;;;;;;;5036746;28;20219;-48
2022/12/03 12:39:25;;;;;;;62.03;28.83;;;;;;;;;;5035910;28;20263;-47
2022/12/03 12:41:53;;;;;;;59.57;28.47;;;;;;;;;;5036021;28;20220;-50
2022/12/03 12:44:22;;;;;;;56.40;27.50;;;;;;;;;;5036416;28;20204;-46
2022/12/03 12:46:51;;;;;;;55.77;26.63;;;;;;;;;;5036250;28;20515;-48
2022/12/03 12:49:22;;;;;;;57.40;26.77;;;;;;;;;;5035327;28;20649;-49
2022/12/03 12:51:49;;;;;;;52.17;25.97;;;;;;;;;;5035333;28;20192;-47
2022/12/03 12:54:19;;;;;;;53.43;27.37;;;;;;;;;;5029373;28;20232;-46
2022/12/03 12:56:48;;;;;;;58.07;27.83;;;;;;;;;;5035260;28;20224;-46
2022/12/03 12:59:20;;;;;;;59.33;26.50;;;;;;;;;;5025532;28;20268;-45
2022/12/03 13:01:49;;;;;;;55.27;26.97;;;;;;;;;;5018732;28;20228;-44
2022/12/03 13:04:18;;;;;;;57.87;26.90;;;;;;;;;;5030197;28;20233;-43
2022/12/03 13:06:46;;;;;;;54.93;27.23;;;;;;;;;;5035901;28;20217;-44
2022/12/03 13:09:14;;;;;;;73.67;30.70;;;;;;;;;;5021951;28;20275;-44
2022/12/03 13:11:44;;;;;;;52.10;25.80;;;;;;;;;;5034770;28;20592;-44
2022/12/03 13:14:16;;;;;;;55.47;26.13;;;;;;;;;;5035648;28;20331;-46
2022/12/03 13:16:43;;;;;;;52.97;25.60;;;;;;;;;;5034064;28;20832;-44
2022/12/03 13:19:26;;;;;;;53.87;25.23;;;;;;;;;;5034963;28;20278;-44
2022/12/03 13:22:02;;;;;;;54.27;25.73;;;;;;;;;;5034456;28;20298;-46
2022/12/03 13:24:30;;;;;;;50.30;24.03;;;;;;;;;;5033673;28;20244;-44
2022/12/03 13:27:00;;;;;;;51.97;25.10;;;;;;;;;;5034691;28;20231;-46
2022/12/03 13:29:27;;;;;;;48.57;24.83;;;;;;;;;;5034991;28;20232;-43
2022/12/03 13:31:57;;;;;;;80.13;32.53;;;;;;;;;;5034392;28;20228;-44
2022/12/03 13:34:35;;;;;;;189.60;71.33;;;;;;;;;;5033847;28;20240;-43
2022/12/03 13:37:11;;;;;;;300.00;109.70;;;;;;;;;;5033953;28;20239;-44
2022/12/03 13:39:43;;;;;;;360.60;146.73;;;;;;;;;;5033190;28;20307;-44
2022/12/03 13:42:37;;;;;;;303.10;125.93;;;;;;;;;;5033574;28;20232;-45
2022/12/03 13:45:13;;;;;;;179.47;71.87;;;;;;;;;;5034064;28;20228;-44
2022/12/03 13:47:46;;;;;;;131.33;54.40;;;;;;;;;;5034517;28;20232;-46
2022/12/03 13:50:35;;;;;;;110.03;48.17;;;;;;;;;;5034422;28;20245;-44
2022/12/03 13:53:20;;;;;;;170.20;66.50;;;;;;;;;;5033603;28;20689;-45
2022/12/03 13:55:49;;;;;;;122.77;51.40;;;;;;;;;;5034110;28;20548;-43
2022/12/03 13:58:16;;;;;;;108.40;46.53;;;;;;;;;;5034222;28;20221;-44
2022/12/03 14:00:44;;;;;;;96.73;42.20;;;;;;;;;;5033670;28;20251;-44
2022/12/03 14:03:11;;;;;;;98.03;42.37;;;;;;;;;;5032699;28;20239;-45
2022/12/03 14:05:37;;;;;;;102.43;41.70;;;;;;;;;;5033116;28;20217;-44
2022/12/03 14:08:05;;;;;;;101.13;41.40;;;;;;;;;;5033023;28;20692;-45
2022/12/03 14:10:32;;;;;;;97.80;41.97;;;;;;;;;;5030013;28;20217;-46
2022/12/03 14:12:59;;;;;;;97.27;38.53;;;;;;;;;;5034200;28;20212;-47
2022/12/03 14:15:26;;;;;;;108.23;39.63;;;;;;;;;;5033815;28;20236;-45
2022/12/03 14:17:53;;;;;;;71.77;30.53;;;;;;;;;;5032399;28;20232;-46
2022/12/03 14:20:20;;;;;;;121.17;46.97;;;;;;;;;;5033666;28;20221;-42
2022/12/03 14:22:47;;;;;;;103.53;41.90;;;;;;;;;;4499257;28;15065034;-45
2022/12/03 14:25:14;;;;;;;127.63;50.60;;;;;;;;;;5021586;28;20239;-44
2022/12/03 14:27:41;;;;;;;240.03;84.40;;;;;;;;;;5034283;28;20231;-44
2022/12/03 14:30:08;;;;;;;172.27;62.57;;;;;;;;;;5034999;28;20266;-47
2022/12/03 14:32:35;;;;;;;192.67;63.63;;;;;;;;;;5034934;28;20271;-44
2022/12/03 14:35:02;;;;;;;149.53;56.33;;;;;;;;;;5033630;28;20757;-47
2022/12/03 14:37:35;;;;;;;128.60;52.23;;;;;;;;;;5034207;28;20196;-44
2022/12/03 14:40:03;;;;;;;141.20;55.57;;;;;;;;;;5034571;28;20235;-45
2022/12/03 14:42:30;;;;;;;120.57;49.77;;;;;;;;;;5051943;28;20200;-44
2022/12/03 14:44:57;;;;;;;119.27;50.43;;;;;;;;;;5054654;28;20266;-43
2022/12/03 14:47:24;;;;;;;72.73;32.93;;;;;;;;;;5054628;28;20591;-43
2022/12/03 14:49:51;;;;;;;72.87;33.00;;;;;;;;;;5054796;28;20273;-46